createdAt,value
2023-04-01T00:00:00.118Z, 0
2023-04-01T00:02:00.121Z, 0
2023-04-01T00:04:00.222Z, 0
2023-04-01T00:06:00.126Z, 0
2023-04-01T00:08:00.117Z, 0
2023-04-01T00:10:00.157Z, 0
2023-04-01T00:12:00.146Z, 0
2023-04-01T00:14:00.110Z, 0
2023-04-01T00:16:00.455Z, 0
2023-04-01T00:18:00.212Z, 0
2023-04-01T00:20:00.160Z, 0
2023-04-01T00:22:00.125Z, 0
2023-04-01T00:24:00.356Z, 0
2023-04-01T00:26:00.082Z, 0
2023-04-01T00:28:00.044Z, 0
2023-04-01T00:30:00.143Z, 0
2023-04-01T00:32:00.154Z, 0
2023-04-01T00:34:00.117Z, 0
2023-04-01T00:36:00.156Z, 0
2023-04-01T00:38:00.107Z, 0
2023-04-01T00:40:00.161Z, 0
2023-04-01T00:42:00.122Z, 0
2023-04-01T00:44:00.042Z, 0
2023-04-01T00:46:00.082Z, 0
2023-04-01T00:48:00.169Z, 0
2023-04-01T00:50:00.086Z, 0
2023-04-01T00:52:00.123Z, 0
2023-04-01T00:54:00.146Z, 0
2023-04-01T00:56:00.125Z, 0
2023-04-01T00:58:00.119Z, 0
2023-04-01T01:00:00.259Z, 0
2023-04-01T01:02:00.162Z, 0
2023-04-01T01:04:00.143Z, 0
2023-04-01T01:06:00.157Z, 0
2023-04-01T01:08:00.127Z, 0
2023-04-01T01:10:00.141Z, 0
2023-04-01T01:12:00.156Z, 0
2023-04-01T01:14:00.137Z, 0
2023-04-01T01:16:00.106Z, 0
2023-04-01T01:18:00.165Z, 0
2023-04-01T01:20:00.168Z, 0
2023-04-01T01:22:00.123Z, 0
2023-04-01T01:24:00.139Z, 0
2023-04-01T01:26:00.101Z, 0
2023-04-01T01:28:00.121Z, 0
2023-04-01T01:30:00.158Z, 0
2023-04-01T01:32:00.105Z, 0
2023-04-01T01:34:00.096Z, 0
2023-04-01T01:36:00.192Z, 0
2023-04-01T01:38:00.116Z, 0
2023-04-01T01:40:00.130Z, 0
2023-04-01T01:42:00.118Z, 0
2023-04-01T01:44:00.110Z, 0
2023-04-01T01:46:00.191Z, 0
2023-04-01T01:48:00.169Z, 0
2023-04-01T01:50:00.143Z, 0
2023-04-01T01:52:00.096Z, 0
2023-04-01T01:54:00.123Z, 0
2023-04-01T01:56:00.112Z, 0
2023-04-01T01:58:00.119Z, 0
2023-04-01T02:00:00.179Z, 0
2023-04-01T02:02:00.240Z, 0
2023-04-01T02:04:00.143Z, 0
2023-04-01T02:06:00.137Z, 0
2023-04-01T02:08:00.129Z, 0
2023-04-01T02:10:00.143Z, 0
2023-04-01T02:12:00.181Z, 0
2023-04-01T02:14:00.130Z, 0
2023-04-01T02:16:00.201Z, 0
2023-04-01T02:18:00.255Z, 0
2023-04-01T02:20:00.265Z, 0
2023-04-01T02:22:00.167Z, 0
2023-04-01T02:24:00.157Z, 0
2023-04-01T02:26:00.060Z, 0
2023-04-01T02:28:00.101Z, 0
2023-04-01T02:30:00.115Z, 0
2023-04-01T02:32:00.049Z, 0
2023-04-01T02:34:00.069Z, 0
2023-04-01T02:36:00.181Z, 0
2023-04-01T02:38:00.045Z, 0
2023-04-01T02:40:00.142Z, 0
2023-04-01T02:42:00.096Z, 0
2023-04-01T02:44:00.039Z, 0
2023-04-01T02:46:00.105Z, 0
2023-04-01T02:48:00.142Z, 0
2023-04-01T02:50:00.053Z, 0
2023-04-01T02:52:00.248Z, 0
2023-04-01T02:54:00.114Z, 0
2023-04-01T02:56:00.124Z, 0
2023-04-01T02:58:00.125Z, 0
2023-04-01T03:00:00.124Z, 0
2023-04-01T03:02:00.145Z, 0
2023-04-01T03:04:00.146Z, 0
2023-04-01T03:06:00.153Z, 0
2023-04-01T03:08:00.144Z, 0
2023-04-01T03:10:00.168Z, 0
2023-04-01T03:12:00.184Z, 0
2023-04-01T03:14:00.124Z, 0
2023-04-01T03:16:00.166Z, 0
2023-04-01T03:18:00.289Z, 0
2023-04-01T03:20:00.144Z, 0
2023-04-01T03:22:00.115Z, 0
2023-04-01T03:24:00.153Z, 0
2023-04-01T03:26:00.113Z, 0
2023-04-01T03:28:00.134Z, 0
2023-04-01T03:30:00.159Z, 0
2023-04-01T03:32:00.148Z, 0
2023-04-01T03:34:00.097Z, 0
2023-04-01T03:36:00.258Z, 0
2023-04-01T03:38:00.098Z, 0
2023-04-01T03:40:00.055Z, 0
2023-04-01T03:42:00.165Z, 0
2023-04-01T03:44:00.093Z, 0
2023-04-01T03:46:00.187Z, 0
2023-04-01T03:48:00.174Z, 0
2023-04-01T03:50:00.060Z, 0
2023-04-01T03:52:00.064Z, 0
2023-04-01T03:54:00.056Z, 0
2023-04-01T03:56:00.182Z, 0
2023-04-01T03:58:00.118Z, 0
2023-04-01T04:00:00.190Z, 0
2023-04-01T04:02:00.138Z, 0
2023-04-01T04:04:00.167Z, 0
2023-04-01T04:06:00.159Z, 0
2023-04-01T04:08:00.150Z, 0
2023-04-01T04:10:00.144Z, 0
2023-04-01T04:12:00.186Z, 0
2023-04-01T04:14:00.135Z, 0
2023-04-01T04:16:00.163Z, 0
2023-04-01T04:18:00.229Z, 0
2023-04-01T04:20:00.179Z, 0
2023-04-01T04:22:00.180Z, 0
2023-04-01T04:24:00.163Z, 0
2023-04-01T04:26:00.194Z, 0
2023-04-01T04:28:00.191Z, 0
2023-04-01T04:30:00.243Z, 0
2023-04-01T04:32:00.337Z, 0
2023-04-01T04:34:00.155Z, 0
2023-04-01T04:36:00.201Z, 0
2023-04-01T04:38:00.160Z, 0
2023-04-01T04:40:00.194Z, 0
2023-04-01T04:42:00.215Z, 0
2023-04-01T04:44:00.162Z, 1
2023-04-01T04:46:00.149Z, 3
2023-04-01T04:48:00.281Z, 5
2023-04-01T04:50:00.174Z, 7
2023-04-01T04:52:00.158Z, 10
2023-04-01T04:54:00.212Z, 15
2023-04-01T04:56:00.070Z, 30
2023-04-01T04:58:00.058Z, 37
2023-04-01T05:00:00.202Z, 47
2023-04-01T05:02:00.146Z, 60
2023-04-01T05:04:00.056Z, 74
2023-04-01T05:06:00.079Z, 82
2023-04-01T05:08:00.082Z, 108
2023-04-01T05:10:00.071Z, 114
2023-04-01T05:12:00.098Z, 139
2023-04-01T05:14:00.060Z, 190
2023-04-01T05:16:00.041Z, 249
2023-04-01T05:18:00.123Z, 297
2023-04-01T05:20:00.055Z, 306
2023-04-01T05:22:00.042Z, 339
2023-04-01T05:24:00.104Z, 431
2023-04-01T05:26:00.124Z, 482
2023-04-01T05:28:00.108Z, 534
2023-04-01T05:30:00.119Z, 562
2023-04-01T05:32:00.168Z, 623
2023-04-01T05:34:00.154Z, 652
2023-04-01T05:36:00.190Z, 695
2023-04-01T05:38:00.121Z, 741
2023-04-01T05:40:00.161Z, 688
2023-04-01T05:42:00.134Z, 720
2023-04-01T05:44:00.106Z, 885
2023-04-01T05:46:00.119Z, 1070
2023-04-01T05:48:00.209Z, 1121
2023-04-01T05:50:00.146Z, 1315
2023-04-01T05:52:00.124Z, 1280
2023-04-01T05:54:00.123Z, 1604
2023-04-01T05:56:00.118Z, 1805
2023-04-01T05:58:00.092Z, 1640
2023-04-01T06:00:00.126Z, 1887
2023-04-01T06:02:00.238Z, 2045
2023-04-01T06:04:00.212Z, 2073
2023-04-01T06:06:00.068Z, 2051
2023-04-01T06:08:00.119Z, 2084
2023-04-01T06:10:00.090Z, 2038
2023-04-01T06:12:00.095Z, 2166
2023-04-01T06:14:00.105Z, 1962
2023-04-01T06:16:00.116Z, 1882
2023-04-01T06:18:00.139Z, 1856
2023-04-01T06:20:00.060Z, 1894
2023-04-01T06:22:00.049Z, 2024
2023-04-01T06:24:00.055Z, 2223
2023-04-01T06:26:00.141Z, 2638
2023-04-01T06:28:00.090Z, 3048
2023-04-01T06:30:00.161Z, 3575
2023-04-01T06:32:00.172Z, 3890
2023-04-01T06:34:00.141Z, 4640
2023-04-01T06:36:00.267Z, 4950
2023-04-01T06:38:00.135Z, 5754
2023-04-01T06:40:00.152Z, 6783
2023-04-01T06:42:00.140Z, 7655
2023-04-01T06:44:00.114Z, 8407
2023-04-01T06:46:00.136Z, 9209
2023-04-01T06:48:00.189Z, 9981
2023-04-01T06:50:00.156Z, 9802
2023-04-01T06:52:00.144Z, 10169
2023-04-01T06:54:00.129Z, 10392
2023-04-01T06:56:00.064Z, 9921
2023-04-01T06:58:00.062Z, 9491
2023-04-01T07:00:00.088Z, 8919
2023-04-01T07:02:00.041Z, 7909
2023-04-01T07:04:00.269Z, 7665
2023-04-01T07:06:00.051Z, 7856
2023-04-01T07:08:00.033Z, 7063
2023-04-01T07:10:00.031Z, 7619
2023-04-01T07:12:00.088Z, 8059
2023-04-01T07:14:00.065Z, 8635
2023-04-01T07:16:00.120Z, 8358
2023-04-01T07:18:00.273Z, 8478
2023-04-01T07:20:00.067Z, 8530
2023-04-01T07:22:00.048Z, 8460
2023-04-01T07:24:00.053Z, 8587
2023-04-01T07:26:00.115Z, 8960
2023-04-01T07:28:00.153Z, 9368
2023-04-01T07:30:00.129Z, 9946
2023-04-01T07:32:00.105Z, 10775
2023-04-01T07:34:00.105Z, 11374
2023-04-01T07:36:00.182Z, 10923
2023-04-01T07:38:00.110Z, 9895
2023-04-01T07:40:00.145Z, 10362
2023-04-01T07:42:00.167Z, 10033
2023-04-01T07:44:00.101Z, 9971
2023-04-01T07:46:00.151Z, 10418
2023-04-01T07:48:00.168Z, 10355
2023-04-01T07:50:00.143Z, 10348
2023-04-01T07:52:00.145Z, 10571
2023-04-01T07:54:00.154Z, 11005
2023-04-01T07:56:00.062Z, 11617
2023-04-01T07:58:00.047Z, 11367
2023-04-01T08:00:00.114Z, 11378
2023-04-01T08:02:00.048Z, 11240
2023-04-01T08:04:00.338Z, 10894
2023-04-01T08:06:00.050Z, 10862
2023-04-01T08:08:00.029Z, 11300
2023-04-01T08:10:00.016Z, 11345
2023-04-01T08:12:00.062Z, 10904
2023-04-01T08:14:00.080Z, 10859
2023-04-01T08:16:00.178Z, 11582
2023-04-01T08:18:00.160Z, 10510
2023-04-01T08:20:00.070Z, 10430
2023-04-01T08:22:00.096Z, 10792
2023-04-01T08:24:00.071Z, 11045
2023-04-01T08:26:00.074Z, 11446
2023-04-01T08:28:00.030Z, 12672
2023-04-01T08:30:00.038Z, 14937
2023-04-01T08:32:00.157Z, 15560
2023-04-01T08:34:00.025Z, 15339
2023-04-01T08:36:00.219Z, 14920
2023-04-01T08:38:00.041Z, 18373
2023-04-01T08:40:00.010Z, 19432
2023-04-01T08:42:00.034Z, 17300
2023-04-01T08:44:00.034Z, 16535
2023-04-01T08:46:00.080Z, 15014
2023-04-01T08:48:00.037Z, 14434
2023-04-01T08:50:00.004Z, 14150
2023-04-01T08:52:00.012Z, 14417
2023-04-01T08:54:00.020Z, 14170
2023-04-01T08:56:00.106Z, 15451
2023-04-01T08:58:00.110Z, 16633
2023-04-01T09:00:00.114Z, 17799
2023-04-01T09:02:00.199Z, 19972
2023-04-01T09:04:00.301Z, 21378
2023-04-01T09:06:00.119Z, 21211
2023-04-01T09:08:00.113Z, 19514
2023-04-01T09:10:00.155Z, 17891
2023-04-01T09:12:00.179Z, 20552
2023-04-01T09:14:00.131Z, 20052
2023-04-01T09:16:00.184Z, 19676
2023-04-01T09:18:00.149Z, 15119
2023-04-01T09:20:00.129Z, 13224
2023-04-01T09:22:00.122Z, 11441
2023-04-01T09:24:00.156Z, 14380
2023-04-01T09:26:00.109Z, 13490
2023-04-01T09:28:00.088Z, 15167
2023-04-01T09:30:00.102Z, 16317
2023-04-01T09:32:00.041Z, 16525
2023-04-01T09:34:00.058Z, 15798
2023-04-01T09:36:00.090Z, 16260
2023-04-01T09:38:00.045Z, 17097
2023-04-01T09:40:00.056Z, 18926
2023-04-01T09:42:00.055Z, 19120
2023-04-01T09:44:00.047Z, 17386
2023-04-01T09:46:00.130Z, 14930
2023-04-01T09:48:00.170Z, 11986
2023-04-01T09:50:00.042Z, 10280
2023-04-01T09:52:00.045Z, 10864
2023-04-01T09:54:00.039Z, 11475
2023-04-01T09:56:00.123Z, 12806
2023-04-01T09:58:00.197Z, 13219
2023-04-01T10:00:00.164Z, 12171
2023-04-01T10:02:00.166Z, 10331
2023-04-01T10:04:00.130Z, 8820
2023-04-01T10:06:00.203Z, 8602
2023-04-01T10:08:00.125Z, 9275
2023-04-01T10:10:00.102Z, 11191
2023-04-01T10:12:00.117Z, 13176
2023-04-01T10:14:00.171Z, 16035
2023-04-01T10:16:00.159Z, 16205
2023-04-01T10:18:00.187Z, 14292
2023-04-01T10:20:00.109Z, 10060
2023-04-01T10:22:00.140Z, 10289
2023-04-01T10:24:00.132Z, 11207
2023-04-01T10:26:00.057Z, 13036
2023-04-01T10:28:00.052Z, 10825
2023-04-01T10:30:00.155Z, 10290
2023-04-01T10:32:00.132Z, 12026
2023-04-01T10:34:00.066Z, 12420
2023-04-01T10:36:00.097Z, 11819
2023-04-01T10:38:00.142Z, 11744
2023-04-01T10:40:00.049Z, 12607
2023-04-01T10:42:00.045Z, 10538
2023-04-01T10:44:00.059Z, 8098
2023-04-01T10:46:00.082Z, 8786
2023-04-01T10:48:00.111Z, 10477
2023-04-01T10:50:00.077Z, 11705
2023-04-01T10:52:00.029Z, 13652
2023-04-01T10:54:00.022Z, 15259
2023-04-01T10:56:00.123Z, 15613
2023-04-01T10:58:00.143Z, 14711
2023-04-01T11:00:00.178Z, 14027
2023-04-01T11:02:10.106Z, 14010
2023-04-01T11:04:00.164Z, 14165
2023-04-01T11:06:00.106Z, 14234
2023-04-01T11:08:05.986Z, 13020
2023-04-01T11:10:00.106Z, 11885
2023-04-01T11:12:00.142Z, 11114
2023-04-01T11:14:00.104Z, 10835
2023-04-01T11:16:00.144Z, 10986
2023-04-01T11:18:00.164Z, 11297
2023-04-01T11:20:00.115Z, 11825
2023-04-01T11:22:00.114Z, 11552
2023-04-01T11:24:04.915Z, 10948
2023-04-01T11:26:00.104Z, 11000
2023-04-01T11:28:00.049Z, 11285
2023-04-01T11:30:00.904Z, 10997
2023-04-01T11:32:00.055Z, 10433
2023-04-01T11:34:00.079Z, 10939
2023-04-01T11:36:00.084Z, 12235
2023-04-01T11:38:00.041Z, 13028
2023-04-01T11:40:00.040Z, 13307
2023-04-01T11:42:00.085Z, 13870
2023-04-01T11:44:00.049Z, 15882
2023-04-01T11:46:00.056Z, 17475
2023-04-01T11:48:00.087Z, 18985
2023-04-01T11:50:00.042Z, 20459
2023-04-01T11:52:00.038Z, 21521
2023-04-01T11:54:00.026Z, 21797
2023-04-01T11:56:00.123Z, 20985
2023-04-01T11:58:00.132Z, 22069
2023-04-01T12:00:00.107Z, 23237
2023-04-01T12:02:00.112Z, 24675
2023-04-01T12:04:00.341Z, 24750
2023-04-01T12:06:00.115Z, 22671
2023-04-01T12:08:00.112Z, 21824
2023-04-01T12:10:00.125Z, 21780
2023-04-01T12:12:00.116Z, 22310
2023-04-01T12:14:00.123Z, 19073
2023-04-01T12:16:00.155Z, 17278
2023-04-01T12:18:00.209Z, 16068
2023-04-01T12:20:00.145Z, 17047
2023-04-01T12:22:00.163Z, 14289
2023-04-01T12:24:00.124Z, 16148
2023-04-01T12:28:00.106Z, 14666
2023-04-01T12:30:00.126Z, 14125
2023-04-01T12:32:00.166Z, 13658
2023-04-01T12:34:00.052Z, 13955
2023-04-01T12:36:00.178Z, 16202
2023-04-01T12:38:00.077Z, 17544
2023-04-01T12:40:00.066Z, 16645
2023-04-01T12:42:00.084Z, 22502
2023-04-01T12:44:00.052Z, 28323
2023-04-01T12:46:00.091Z, 30335
2023-04-01T12:48:00.154Z, 26440
2023-04-01T12:50:00.060Z, 26260
2023-04-01T12:52:00.081Z, 26305
2023-04-01T12:54:00.063Z, 22718
2023-04-01T12:56:00.126Z, 18554
2023-04-01T12:58:00.133Z, 20270
2023-04-01T13:00:00.140Z, 22631
2023-04-01T13:02:00.128Z, 25263
2023-04-01T13:04:00.195Z, 37601
2023-04-01T13:06:00.119Z, 36708
2023-04-01T13:08:00.139Z, 40130
2023-04-01T13:10:00.134Z, 54612
2023-04-01T13:12:00.142Z, 35540
2023-04-01T13:14:00.122Z, 37077
2023-04-01T13:16:00.220Z, 36767
2023-04-01T13:18:00.185Z, 34826
2023-04-01T13:20:05.632Z, 22610
2023-04-01T13:22:00.125Z, 21482
2023-04-01T13:24:00.119Z, 18032
2023-04-01T13:26:13.130Z, 13919
2023-04-01T13:28:00.108Z, 11545
2023-04-01T13:30:00.136Z, 22900
2023-04-01T13:32:00.088Z, 31170
2023-04-01T13:34:00.082Z, 33792
2023-04-01T13:36:00.136Z, 28182
2023-04-01T13:38:00.068Z, 26855
2023-04-01T13:40:00.072Z, 21956
2023-04-01T13:42:00.101Z, 18721
2023-04-01T13:44:00.056Z, 17326
2023-04-01T13:46:00.063Z, 15557
2023-04-01T13:48:00.109Z, 16436
2023-04-01T13:50:00.093Z, 19062
2023-04-01T13:52:00.054Z, 20324
2023-04-01T13:54:00.069Z, 21362
2023-04-01T13:56:00.131Z, 23425
2023-04-01T13:58:00.145Z, 30447
2023-04-01T14:00:00.169Z, 38867
2023-04-01T14:02:00.193Z, 45010
2023-04-01T14:04:00.178Z, 43638
2023-04-01T14:06:00.156Z, 44755
2023-04-01T14:08:00.177Z, 25966
2023-04-01T14:10:00.141Z, 22780
2023-04-01T14:12:00.180Z, 18308
2023-04-01T14:14:00.151Z, 17319
2023-04-01T14:16:00.253Z, 13806
2023-04-01T14:18:00.226Z, 13862
2023-04-01T14:20:02.200Z, 16455
2023-04-01T14:22:00.167Z, 20212
2023-04-01T14:24:00.166Z, 24394
2023-04-01T14:26:00.097Z, 45624
2023-04-01T14:28:00.050Z, 33120
2023-04-01T14:30:00.109Z, 27740
2023-04-01T14:32:00.108Z, 23234
2023-04-01T14:34:00.075Z, 32160
2023-04-01T14:36:00.174Z, 24287
2023-04-01T14:38:00.083Z, 17240
2023-04-01T14:40:00.084Z, 12956
2023-04-01T14:42:04.043Z, 10443
2023-04-01T14:44:00.089Z, 10460
2023-04-01T14:46:00.121Z, 12200
2023-04-01T14:48:00.156Z, 6468
2023-04-01T14:50:00.710Z, 5789
2023-04-01T14:52:00.048Z, 6150
2023-04-01T14:54:00.111Z, 3725
2023-04-01T14:56:00.115Z, 5297
2023-04-01T14:58:00.116Z, 4908
2023-04-01T15:00:00.122Z, 7527
2023-04-01T15:02:00.122Z, 25219
2023-04-01T15:04:00.181Z, 18811
2023-04-01T15:06:00.146Z, 28140
2023-04-01T15:08:00.132Z, 26144
2023-04-01T15:10:00.154Z, 40725
2023-04-01T15:12:00.126Z, 32020
2023-04-01T15:14:00.160Z, 27018
2023-04-01T15:16:00.142Z, 19468
2023-04-01T15:18:00.279Z, 15850
2023-04-01T15:20:00.118Z, 11070
2023-04-01T15:22:00.133Z, 11924
2023-04-01T15:24:00.129Z, 24903
2023-04-01T15:26:00.119Z, 24213
2023-04-01T15:28:00.129Z, 23247
2023-04-01T15:30:00.122Z, 27705
2023-04-01T15:32:00.100Z, 19230
2023-04-01T15:34:00.098Z, 19698
2023-04-01T15:36:00.159Z, 14444
2023-04-01T15:38:00.108Z, 11577
2023-04-01T15:40:00.102Z, 8264
2023-04-01T15:42:00.106Z, 6985
2023-04-01T15:44:00.107Z, 5863
2023-04-01T15:46:00.108Z, 4899
2023-04-01T15:48:00.227Z, 2908
2023-04-01T15:50:00.144Z, 1730
2023-04-01T15:52:00.080Z, 1398
2023-04-01T15:54:00.125Z, 1294
2023-04-01T15:56:00.119Z, 1163
2023-04-01T15:58:00.106Z, 1018
2023-04-01T16:00:00.217Z, 1115
2023-04-01T16:02:00.166Z, 1046
2023-04-01T16:04:00.215Z, 1475
2023-04-01T16:06:00.154Z, 2134
2023-04-01T16:08:00.299Z, 2734
2023-04-01T16:10:00.149Z, 4064
2023-04-01T16:12:00.156Z, 5872
2023-04-01T16:14:00.129Z, 5385
2023-04-01T16:16:00.161Z, 6425
2023-04-01T16:18:00.143Z, 11784
2023-04-01T16:20:00.129Z, 8996
2023-04-01T16:22:01.987Z, 9252
2023-04-01T16:24:00.162Z, 15362
2023-04-01T16:26:00.111Z, 14308
2023-04-01T16:28:00.053Z, 7271
2023-04-01T16:30:00.049Z, 6850
2023-04-01T16:32:00.079Z, 6513
2023-04-01T16:34:00.093Z, 6146
2023-04-01T16:36:00.148Z, 6398
2023-04-01T16:38:00.062Z, 5741
2023-04-01T16:40:00.047Z, 6170
2023-04-01T16:42:00.109Z, 5032
2023-04-01T16:44:00.069Z, 6152
2023-04-01T16:46:00.135Z, 7725
2023-04-01T16:48:00.094Z, 9316
2023-04-01T16:50:00.050Z, 7923
2023-04-01T16:52:00.059Z, 5865
2023-04-01T16:54:00.061Z, 3671
2023-04-01T16:56:00.107Z, 3460
2023-04-01T16:58:00.101Z, 3318
2023-04-01T17:00:00.165Z, 3014
2023-04-01T17:02:00.140Z, 3275
2023-04-01T17:04:00.192Z, 3678
2023-04-01T17:06:00.134Z, 4037
2023-04-01T17:08:00.128Z, 4270
2023-04-01T17:10:00.141Z, 4751
2023-04-01T17:12:00.208Z, 3665
2023-04-01T17:14:00.176Z, 3636
2023-04-01T17:16:00.217Z, 3843
2023-04-01T17:18:00.190Z, 3087
2023-04-01T17:20:00.182Z, 2190
2023-04-01T17:22:00.115Z, 1807
2023-04-01T17:24:00.182Z, 1866
2023-04-01T17:26:00.127Z, 1894
2023-04-01T17:28:00.058Z, 1908
2023-04-01T17:30:00.086Z, 1732
2023-04-01T17:32:00.060Z, 1648
2023-04-01T17:34:00.059Z, 1505
2023-04-01T17:36:00.184Z, 1027
2023-04-01T17:38:00.045Z, 756
2023-04-01T17:40:00.125Z, 558
2023-04-01T17:42:00.106Z, 458
2023-04-01T17:44:00.055Z, 410
2023-04-01T17:46:00.052Z, 337
2023-04-01T17:48:00.175Z, 181
2023-04-01T17:50:00.104Z, 119
2023-04-01T17:52:00.047Z, 112
2023-04-01T17:54:00.112Z, 118
2023-04-01T17:56:00.106Z, 77
2023-04-01T17:58:00.108Z, 59
2023-04-01T18:00:00.121Z, 39
2023-04-01T18:02:00.239Z, 30
2023-04-01T18:04:00.221Z, 35
2023-04-01T18:06:00.143Z, 48
2023-04-01T18:08:00.154Z, 53
2023-04-01T18:10:00.160Z, 44
2023-04-01T18:12:00.138Z, 34
2023-04-01T18:14:00.112Z, 21
2023-04-01T18:16:00.151Z, 14
2023-04-01T18:18:00.251Z, 7
2023-04-01T18:20:00.164Z, 3
2023-04-01T18:22:00.208Z, 1
2023-04-01T18:24:02.664Z, 0
2023-04-01T18:26:00.124Z, 0
2023-04-01T18:28:00.124Z, 0
2023-04-01T18:30:00.151Z, 0
2023-04-01T18:32:00.153Z, 0
2023-04-01T18:34:00.119Z, 0
2023-04-01T18:36:00.245Z, 0
2023-04-01T18:38:00.166Z, 0
2023-04-01T18:40:00.128Z, 0
2023-04-01T18:42:00.062Z, 0
2023-04-01T18:44:00.135Z, 0
2023-04-01T18:46:00.155Z, 0
2023-04-01T18:48:00.161Z, 0
2023-04-01T18:50:00.053Z, 0
2023-04-01T18:52:00.034Z, 0
2023-04-01T18:54:00.023Z, 0
2023-04-01T18:56:00.126Z, 0
2023-04-01T18:58:00.144Z, 0
2023-04-01T19:00:00.152Z, 0
2023-04-01T19:02:00.135Z, 0
2023-04-01T19:04:00.214Z, 0
2023-04-01T19:06:00.112Z, 0
2023-04-01T19:08:00.102Z, 0
2023-04-01T19:10:00.120Z, 0
2023-04-01T19:12:00.139Z, 0
2023-04-01T19:14:00.148Z, 0
2023-04-01T19:16:00.195Z, 0
2023-04-01T19:18:00.195Z, 0
2023-04-01T19:20:00.140Z, 0
2023-04-01T19:22:00.128Z, 0
2023-04-01T19:24:00.152Z, 0
2023-04-01T19:26:00.083Z, 0
2023-04-01T19:28:00.098Z, 0
2023-04-01T19:30:00.082Z, 0
2023-04-01T19:32:00.049Z, 0
2023-04-01T19:34:00.096Z, 0
2023-04-01T19:36:00.091Z, 0
2023-04-01T19:38:00.052Z, 0
2023-04-01T19:40:00.039Z, 0
2023-04-01T19:42:00.118Z, 0
2023-04-01T19:44:00.056Z, 0
2023-04-01T19:46:00.093Z, 0
2023-04-01T19:48:00.126Z, 0
2023-04-01T19:50:00.099Z, 0
2023-04-01T19:52:00.103Z, 0
2023-04-01T19:54:00.077Z, 0
2023-04-01T19:56:00.100Z, 0
2023-04-01T19:58:00.099Z, 0
2023-04-01T20:00:00.106Z, 0
2023-04-01T20:02:00.158Z, 0
2023-04-01T20:04:00.245Z, 0
2023-04-01T20:06:00.166Z, 0
2023-04-01T20:08:00.131Z, 0
2023-04-01T20:10:00.182Z, 0
2023-04-01T20:12:00.157Z, 0
2023-04-01T20:14:00.115Z, 0
2023-04-01T20:16:00.165Z, 0
2023-04-01T20:18:00.161Z, 0
2023-04-01T20:20:00.138Z, 0
2023-04-01T20:22:00.127Z, 0
2023-04-01T20:24:00.130Z, 0
2023-04-01T20:26:00.112Z, 0
2023-04-01T20:28:00.069Z, 0
2023-04-01T20:30:00.139Z, 0
2023-04-01T20:32:00.143Z, 0
2023-04-01T20:34:00.098Z, 0
2023-04-01T20:36:00.128Z, 0
2023-04-01T20:38:00.102Z, 0
2023-04-01T20:40:00.118Z, 0
2023-04-01T20:42:00.101Z, 0
2023-04-01T20:44:00.127Z, 0
2023-04-01T20:46:00.193Z, 0
2023-04-01T20:48:00.163Z, 0
2023-04-01T20:50:00.140Z, 0
2023-04-01T20:52:00.129Z, 0
2023-04-01T20:54:00.120Z, 0
2023-04-01T20:56:00.105Z, 0
2023-04-01T20:58:00.122Z, 0
2023-04-01T21:00:00.139Z, 0
2023-04-01T21:02:00.116Z, 0
2023-04-01T21:04:00.192Z, 0
2023-04-01T21:06:00.140Z, 0
2023-04-01T21:08:00.108Z, 0
2023-04-01T21:10:00.100Z, 0
2023-04-01T21:12:00.118Z, 0
2023-04-01T21:14:00.122Z, 0
2023-04-01T21:16:00.151Z, 0
2023-04-01T21:18:00.270Z, 0
2023-04-01T21:20:00.146Z, 0
2023-04-01T21:22:00.127Z, 0
2023-04-01T21:24:00.099Z, 0
2023-04-01T21:26:00.085Z, 0
2023-04-01T21:28:00.079Z, 0
2023-04-01T21:30:00.128Z, 0
2023-04-01T21:32:00.119Z, 0
2023-04-01T21:34:00.096Z, 0
2023-04-01T21:36:00.138Z, 0
2023-04-01T21:38:00.099Z, 0
2023-04-01T21:40:00.097Z, 0
2023-04-01T21:42:00.117Z, 0
2023-04-01T21:44:00.101Z, 0
2023-04-01T21:46:00.132Z, 0
2023-04-01T21:48:00.258Z, 0
2023-04-01T21:50:00.098Z, 0
2023-04-01T21:52:00.091Z, 0
2023-04-01T21:54:00.130Z, 0
2023-04-01T21:56:00.105Z, 0
2023-04-01T21:58:00.112Z, 0
2023-04-01T22:00:00.196Z, 0
2023-04-01T22:02:00.157Z, 0
2023-04-01T22:04:00.179Z, 0
2023-04-01T22:06:00.125Z, 0
2023-04-01T22:08:00.118Z, 0
2023-04-01T22:10:00.101Z, 0
2023-04-01T22:12:00.125Z, 0
2023-04-01T22:14:00.103Z, 0
2023-04-01T22:16:00.201Z, 0
2023-04-01T22:18:00.175Z, 0
2023-04-01T22:20:00.135Z, 0
2023-04-01T22:22:00.112Z, 0
2023-04-01T22:24:00.132Z, 0
2023-04-01T22:26:00.346Z, 0
2023-04-01T22:28:00.097Z, 0
2023-04-01T22:30:00.065Z, 0
2023-04-01T22:32:00.078Z, 0
2023-04-01T22:34:00.040Z, 0
2023-04-01T22:36:00.095Z, 0
2023-04-01T22:38:00.062Z, 0
2023-04-01T22:40:00.052Z, 0
2023-04-01T22:42:00.055Z, 0
2023-04-01T22:44:00.060Z, 0
2023-04-01T22:46:00.101Z, 0
2023-04-01T22:48:00.107Z, 0
2023-04-01T22:50:00.098Z, 0
2023-04-01T22:52:00.051Z, 0
2023-04-01T22:54:00.119Z, 0
2023-04-01T22:56:00.109Z, 0
2023-04-01T22:58:00.114Z, 0
2023-04-01T23:00:00.145Z, 0
2023-04-01T23:02:00.085Z, 0
2023-04-01T23:04:00.124Z, 0
2023-04-01T23:06:00.138Z, 0
2023-04-01T23:08:00.140Z, 0
2023-04-01T23:10:00.137Z, 0
2023-04-01T23:12:00.119Z, 0
2023-04-01T23:14:00.108Z, 0
2023-04-01T23:16:00.146Z, 0
2023-04-01T23:18:00.168Z, 0
2023-04-01T23:20:00.159Z, 0
2023-04-01T23:22:00.123Z, 0
2023-04-01T23:24:00.141Z, 0
2023-04-01T23:26:00.107Z, 0
2023-04-01T23:28:00.067Z, 0
2023-04-01T23:30:00.108Z, 0
2023-04-01T23:32:00.043Z, 0
2023-04-01T23:34:00.042Z, 0
2023-04-01T23:36:00.131Z, 0
2023-04-01T23:38:00.042Z, 0
2023-04-01T23:40:00.042Z, 0
2023-04-01T23:42:00.109Z, 0
2023-04-01T23:44:00.088Z, 0
2023-04-01T23:46:00.080Z, 0
2023-04-01T23:48:00.151Z, 0
2023-04-01T23:50:01.735Z, 0
2023-04-01T23:52:00.047Z, 0
2023-04-01T23:54:00.074Z, 0
2023-04-01T23:56:00.095Z, 0
2023-04-01T23:58:00.102Z, 0
